Nearby METAR Reports

 

KSJC - San Jose, California, USA
Distance from station: NE 9mi, 14km
Updated: Sat, 16-Feb-2019 8:53am PST
Partly cloudy
Partly cloudy
 Wind from S
Wind: S 5 mph , 7 km/h
Temperature: 46°F , 8°C
Wind Chill: 44°F , 7°C
Dew Point: 45°F , 7°C
Humidity: 93%
Barometer: 30.21 inHg , 1023 hPa
Clouds: Partly cloudy
Visibility: 10 miles , 16 km
Cloud details: Few Clouds 2000 ft
Partly cloudy 4500 ft
Partly cloudy 7500 ft
2019/02/16 16:53 KSJC 161653Z 17004KT 10SM FEW020 SCT045 SCT075 08/07 A3021 RMK AO2 RAB1556E17 SLP231 P0002 T00830067
KNUQ - Moffett Nas/Mtn, California, USA
Distance from station: N 9mi, 14km
Updated: Sat, 16-Feb-2019 8:56am PST
Few Clouds
Few Clouds
 Wind from calm
Wind: Calm
Temperature: 48°F , 9°C
Dew Point: 48°F , 9°C
Humidity: 100%
Barometer: 30.21 inHg , 1023 hPa
Clouds: Few Clouds
Visibility: 10 miles , 16 km
Cloud details: Few Clouds 4400 ft
2019/02/16 16:56 KNUQ 161656Z 00000KT 10SM FEW044 09/09 A3021 RMK AO2 RAE02 SLP234 P0000 T00940094 $
 
KPAO - Palo Alto, California, USA
Distance from station: NNW 14mi, 23km
Updated: Sat, 16-Feb-2019 9:47am PST
Mostly cloudy
Mostly cloudy
 Wind from W
Wind: W 9 mph , 15 km/h
Temperature: 50°F , 10°C
Wind Chill: 46°F , 8°C
Dew Point: 45°F , 7°C
Humidity: 82%
Barometer: 30.23 inHg , 1023.7 hPa
Clouds: Mostly cloudy
Visibility: 10 miles , 16 km
Cloud details: Mostly cloudy 4000 ft
2019/02/16 17:47 KPAO 161747Z 27008KT 10SM BKN040 10/07 A3023
KRHV - San Jose/Reid, California, USA
Distance from station: ENE 12mi, 19km
Updated: Fri, 15-Feb-2019 5:47pm PST
NOT Current
Overcast
Overcast
 Wind from varies
Wind: varies 6 mph , 9 km/h
Temperature: 45°F , 7°C
Wind Chill: 42°F , 6°C
Dew Point: 43°F , 6°C
Humidity: 93%
Barometer: 30.03 inHg , 1016.9 hPa
Clouds: Overcast
Visibility: 7 miles , 11 km
Cloud details: Overcast 4000 ft
2019/02/16 01:47 KRHV 160147Z VRB05KT 7SM OVC040 07/06 A3003 RA
 
KOAK - Oakland, California, USA
Distance from station: NNW 31mi, 50km
Updated: Sat, 16-Feb-2019 8:53am PST
Partly cloudy
Partly cloudy
 Wind from W
Wind: W 8 mph , 13 km/h
Temperature: 52°F , 11°C
Dew Point: 43°F , 6°C
Humidity: 72%
Barometer: 30.21 inHg , 1023 hPa
Clouds: Partly cloudy
Visibility: 10 miles , 16 km
Cloud details: Few Clouds 3400 ft
Few Clouds 5000 ft
Partly cloudy 9000 ft
2019/02/16 16:53 KOAK 161653Z 28007KT 10SM FEW034 FEW050 SCT090 11/06 A3021 RMK AO2 RAE1555 SLP230 P0000 T01060056
KSQL - San Carlos Airpo, California, USA
Distance from station: NW 21mi, 34km
Updated: Sat, 16-Feb-2019 9:47am PST
Mostly cloudy
Mostly cloudy
 Wind from W
Wind: W 12 mph , 19 km/h
Temperature: 52°F , 11°C
Dew Point: 41°F , 5°C
Humidity: 67%
Barometer: 30.20 inHg , 1022.7 hPa
Clouds: Mostly cloudy
Visibility: 10 miles , 16 km
Cloud details: Mostly cloudy 3700 ft
Mostly cloudy 4600 ft
2019/02/16 17:47 KSQL 161747Z 26010KT 10SM BKN037 BKN046 11/05 A3020
 
KSFO - San Francisco, California, USA
Distance from station: NW 30mi, 49km
Updated: Sat, 16-Feb-2019 8:56am PST
Mostly cloudy
Mostly cloudy
 Wind from WNW
Wind: WNW 9 mph , 15 km/h
Temperature: 48°F , 9°C
Wind Chill: 44°F , 7°C
Dew Point: 39°F , 4°C
Humidity: 71%
Barometer: 30.19 inHg , 1022.4 hPa
Clouds: Mostly cloudy
Visibility: 8 miles , 13 km
Cloud details: Few Clouds 1500 ft
Mostly cloudy 4200 ft
Mostly cloudy 5000 ft
2019/02/16 16:56 KSFO 161656Z 29008KT 8SM FEW015 BKN042 BKN050 09/04 A3019 RMK AO2 RAB33E56 SLP223 P0000 T00890044
KE16 - San Martin, California, USA
Distance from station: ESE 27mi, 43km
Updated: Sat, 16-Feb-2019 9:35am PST
Few Clouds
Few Clouds
 Wind from ESE
Wind: ESE 3 mph , 6 km/h
Temperature: 45°F , 7°C
Dew Point: 45°F , 7°C
Humidity: 100%
Barometer: 30.24 inHg , 1024 hPa
Clouds: Few Clouds
Visibility: 10 miles , 16 km
Cloud details: Few Clouds 600 ft
2019/02/16 17:35 KE16 161735Z AUTO 12003KT 10SM FEW006 07/07 A3024 RMK AO2
 
KWVI - Watsonville, California, USA
Distance from station: SSE 27mi, 44km
Updated: Sat, 16-Feb-2019 9:05am PST
Partly cloudy
Partly cloudy
 Wind from calm
Wind: Calm
Temperature: 46°F , 8°C
Dew Point: 45°F , 7°C
Humidity: 93%
Barometer: 30.24 inHg , 1024 hPa
Clouds: Partly cloudy
Visibility: 10 miles , 16 km
Cloud details: Partly cloudy 700 ft
Partly cloudy 3900 ft
Partly cloudy 5500 ft
2019/02/16 17:05 KWVI 161705Z AUTO 00000KT 10SM SCT007 SCT039 SCT055 08/07 A3024 RMK AO2 T00780067
KHAF - Half Moon Bay, California, USA
Distance from station: WNW 31mi, 50km
Updated: Wed, 13-Feb-2019 2:15pm PST
NOT Current
Light rain, Overcast
Light rain, Overcast
 Wind from S
Wind: S 33 mph , 54 km/h, Gust: 43 mph , 69 km/h
Temperature: 55°F , 13°C
Dew Point: 54°F , 12°C
Humidity: 94%
Barometer: 29.54 inHg , 1000.3 hPa
Summary: Light rain
Clouds: Overcast
Visibility: 3/4 mile , 1.2 km
Cloud details: Overcast 700 ft
2019/02/13 22:15 KHAF 132215Z AUTO 17029G37KT 3/4SM -RA OVC007 13/12 A2954 RMK AO2
 
KHWD - Hayward, California, USA
Distance from station: N 28mi, 44km
Updated: Sat, 16-Feb-2019 8:54am PST
Partly cloudy
Partly cloudy
 Wind from SSE
Wind: SSE 6 mph , 9 km/h
Temperature: 48°F , 9°C
Wind Chill: 45°F , 7°C
Dew Point: 45°F , 7°C
Humidity: 87%
Barometer: 30.20 inHg , 1022.7 hPa
Clouds: Partly cloudy
Visibility: 10 miles , 16 km
Cloud details: Few Clouds 3100 ft
Partly cloudy 5000 ft
2019/02/16 16:54 KHWD 161654Z 16005KT 10SM FEW031 SCT050 09/07 A3020 RMK AO2 RAB1559E09 SLP235 P0000 T00940072
KLVK - Livermore, California, USA
Distance from station: NNE 31mi, 51km
Updated: Sat, 16-Feb-2019 9:39am PST
Light rain, Mostly cloudy
Light rain, Mostly cloudy
 Wind from W
Wind: W 10 mph , 17 km/h
Temperature: 46°F , 8°C
Wind Chill: 41°F , 5°C
Dew Point: 39°F , 4°C
Humidity: 76%
Barometer: 30.18 inHg , 1022 hPa
Summary: Light rain
Clouds: Mostly cloudy
Visibility: 10 miles , 16 km
Cloud details: Partly cloudy 2600 ft
Mostly cloudy 3700 ft
2019/02/16 17:39 KLVK 161739Z 26009KT 10SM -RA SCT026 BKN037 08/04 A3018 RMK AO2 WSHFT 1719 RAB20 P0000 T00830044